sensor_id;sensor_type;location;lat;lon;timestamp;pressure;altitude;pressure_sealevel;temperature;humidity
9774;BME280;4926;42.670;23.316;2023-02-19T00:01:08;94810.16;;;7.87;64.52
9774;BME280;4926;42.670;23.316;2023-02-19T00:03:35;94814.94;;;7.90;64.58
9774;BME280;4926;42.670;23.316;2023-02-19T00:06:02;94799.03;;;7.96;64.11
9774;BME280;4926;42.670;23.316;2023-02-19T00:08:33;94809.06;;;7.73;65.03
9774;BME280;4926;42.670;23.316;2023-02-19T00:11:01;94806.97;;;7.85;64.53
9774;BME280;4926;42.670;23.316;2023-02-19T00:13:28;94801.97;;;7.94;64.41
9774;BME280;4926;42.670;23.316;2023-02-19T00:15:57;94804.88;;;8.08;63.74
9774;BME280;4926;42.670;23.316;2023-02-19T00:18:25;94805.94;;;8.12;63.69
9774;BME280;4926;42.670;23.316;2023-02-19T00:20:54;94811.78;;;8.19;63.66
9774;BME280;4926;42.670;23.316;2023-02-19T00:23:27;94797.44;;;7.79;65.14
9774;BME280;4926;42.670;23.316;2023-02-19T00:25:55;94812.03;;;7.92;64.83
9774;BME280;4926;42.670;23.316;2023-02-19T00:28:24;94804.09;;;7.97;64.61
9774;BME280;4926;42.670;23.316;2023-02-19T00:30:54;94794.72;;;7.49;66.47
9774;BME280;4926;42.670;23.316;2023-02-19T00:33:23;94798.19;;;7.65;66.14
9774;BME280;4926;42.670;23.316;2023-02-19T00:35:50;94800.09;;;7.74;65.45
9774;BME280;4926;42.670;23.316;2023-02-19T00:38:17;94802.47;;;7.76;65.74
9774;BME280;4926;42.670;23.316;2023-02-19T00:40:43;94784.72;;;7.71;65.66
9774;BME280;4926;42.670;23.316;2023-02-19T00:43:14;94795.84;;;7.88;65.21
9774;BME280;4926;42.670;23.316;2023-02-19T00:45:40;94790.53;;;7.68;65.28
9774;BME280;4926;42.670;23.316;2023-02-19T00:48:07;94791.59;;;7.62;66.17
9774;BME280;4926;42.670;23.316;2023-02-19T00:50:34;94781.25;;;7.81;65.48
9774;BME280;4926;42.670;23.316;2023-02-19T00:53:01;94769.63;;;7.87;65.34
9774;BME280;4926;42.670;23.316;2023-02-19T00:55:27;94776.78;;;7.76;65.65
9774;BME280;4926;42.670;23.316;2023-02-19T00:57:56;94782.06;;;7.86;65.51
9774;BME280;4926;42.670;23.316;2023-02-19T01:00:33;94770.41;;;7.87;65.25
9774;BME280;4926;42.670;23.316;2023-02-19T01:03:00;94771.63;;;7.30;67.18
9774;BME280;4926;42.670;23.316;2023-02-19T01:05:29;94786.75;;;7.29;67.25
9774;BME280;4926;42.670;23.316;2023-02-19T01:07:56;94772.16;;;7.32;67.06
9774;BME280;4926;42.670;23.316;2023-02-19T01:10:25;94783.03;;;7.40;67.34
9774;BME280;4926;42.670;23.316;2023-02-19T01:12:52;94771.94;;;7.48;66.79
9774;BME280;4926;42.670;23.316;2023-02-19T01:15:19;94763.41;;;7.31;66.89
9774;BME280;4926;42.670;23.316;2023-02-19T01:17:47;94757.28;;;7.21;67.05
9774;BME280;4926;42.670;23.316;2023-02-19T01:20:13;94761.34;;;7.43;66.93
9774;BME280;4926;42.670;23.316;2023-02-19T01:22:40;94761.38;;;7.53;66.11
9774;BME280;4926;42.670;23.316;2023-02-19T01:25:09;94772.50;;;7.55;66.02
9774;BME280;4926;42.670;23.316;2023-02-19T01:27:36;94771.16;;;7.63;65.68
9774;BME280;4926;42.670;23.316;2023-02-19T01:30:03;94785.75;;;7.75;65.32
9774;BME280;4926;42.670;23.316;2023-02-19T01:32:30;94779.16;;;7.73;65.08
9774;BME280;4926;42.670;23.316;2023-02-19T01:34:58;94780.72;;;7.69;65.08
9774;BME280;4926;42.670;23.316;2023-02-19T01:37:28;94783.13;;;7.85;64.49
9774;BME280;4926;42.670;23.316;2023-02-19T01:40:00;94802.19;;;7.82;64.39
9774;BME280;4926;42.670;23.316;2023-02-19T01:42:26;94799.53;;;7.77;64.43
9774;BME280;4926;42.670;23.316;2023-02-19T01:45:24;94804.84;;;7.72;65.06
9774;BME280;4926;42.670;23.316;2023-02-19T01:48:00;94817.00;;;7.68;65.25
9774;BME280;4926;42.670;23.316;2023-02-19T01:50:35;94829.13;;;7.39;66.10
9774;BME280;4926;42.670;23.316;2023-02-19T01:53:06;94832.59;;;7.45;65.98
9774;BME280;4926;42.670;23.316;2023-02-19T01:55:35;94815.81;;;7.24;66.70
9774;BME280;4926;42.670;23.316;2023-02-19T01:58:03;94816.84;;;7.08;67.69
9774;BME280;4926;42.670;23.316;2023-02-19T02:00:33;94838.56;;;7.15;67.47
9774;BME280;4926;42.670;23.316;2023-02-19T02:03:00;94810.47;;;7.04;67.80
9774;BME280;4926;42.670;23.316;2023-02-19T02:05:36;94831.56;;;6.89;68.57
9774;BME280;4926;42.670;23.316;2023-02-19T02:08:05;94813.06;;;6.94;68.43
9774;BME280;4926;42.670;23.316;2023-02-19T02:10:50;94817.28;;;6.95;68.20
9774;BME280;4926;42.670;23.316;2023-02-19T02:13:18;94823.72;;;7.09;67.78
9774;BME280;4926;42.670;23.316;2023-02-19T02:15:50;94814.09;;;6.93;67.74
9774;BME280;4926;42.670;23.316;2023-02-19T02:18:27;94806.75;;;7.05;67.25
9774;BME280;4926;42.670;23.316;2023-02-19T02:24:08;94816.38;;;7.31;66.88
9774;BME280;4926;42.670;23.316;2023-02-19T02:26:49;94826.75;;;7.38;66.64
9774;BME280;4926;42.670;23.316;2023-02-19T02:29:52;94820.50;;;7.02;67.44
9774;BME280;4926;42.670;23.316;2023-02-19T02:32:25;94820.88;;;6.74;68.65
9774;BME280;4926;42.670;23.316;2023-02-19T02:34:55;94834.72;;;6.91;68.33
9774;BME280;4926;42.670;23.316;2023-02-19T02:37:25;94830.16;;;6.76;68.80
9774;BME280;4926;42.670;23.316;2023-02-19T02:39:55;94829.25;;;6.56;68.96
9774;BME280;4926;42.670;23.316;2023-02-19T02:42:23;94826.06;;;6.54;69.10
9774;BME280;4926;42.670;23.316;2023-02-19T02:45:20;94836.22;;;6.72;68.94
9774;BME280;4926;42.670;23.316;2023-02-19T02:48:03;94832.50;;;6.68;68.41
9774;BME280;4926;42.670;23.316;2023-02-19T02:50:41;94832.09;;;6.91;68.13
9774;BME280;4926;42.670;23.316;2023-02-19T02:53:12;94832.72;;;7.08;67.74
9774;BME280;4926;42.670;23.316;2023-02-19T02:56:00;94831.16;;;7.17;67.41
9774;BME280;4926;42.670;23.316;2023-02-19T02:58:31;94825.34;;;7.20;67.11
9774;BME280;4926;42.670;23.316;2023-02-19T03:01:04;94823.81;;;7.29;66.83
9774;BME280;4926;42.670;23.316;2023-02-19T03:03:53;94824.63;;;7.40;66.63
9774;BME280;4926;42.670;23.316;2023-02-19T03:06:24;94816.69;;;7.45;66.37
9774;BME280;4926;42.670;23.316;2023-02-19T03:08:57;94827.59;;;7.53;66.32
9774;BME280;4926;42.670;23.316;2023-02-19T03:11:28;94827.03;;;7.51;66.23
9774;BME280;4926;42.670;23.316;2023-02-19T03:14:17;94828.13;;;7.50;66.13
9774;BME280;4926;42.670;23.316;2023-02-19T03:17:09;94829.13;;;7.44;66.30
9774;BME280;4926;42.670;23.316;2023-02-19T03:19:56;94832.81;;;7.38;66.61
9774;BME280;4926;42.670;23.316;2023-02-19T03:22:30;94838.13;;;7.38;66.87
9774;BME280;4926;42.670;23.316;2023-02-19T03:25:02;94846.09;;;7.43;66.76
9774;BME280;4926;42.670;23.316;2023-02-19T03:27:50;94859.25;;;7.28;67.12
9774;BME280;4926;42.670;23.316;2023-02-19T03:30:19;94864.03;;;7.31;67.21
9774;BME280;4926;42.670;23.316;2023-02-19T03:32:58;94857.44;;;7.34;66.52
9774;BME280;4926;42.670;23.316;2023-02-19T03:35:29;94855.09;;;7.42;66.14
9774;BME280;4926;42.670;23.316;2023-02-19T03:38:01;94859.34;;;7.48;65.68
9774;BME280;4926;42.670;23.316;2023-02-19T03:40:34;94860.19;;;7.59;65.54
9774;BME280;4926;42.670;23.316;2023-02-19T03:43:11;94862.31;;;7.67;65.39
9774;BME280;4926;42.670;23.316;2023-02-19T03:45:48;94877.44;;;7.71;65.61
9774;BME280;4926;42.670;23.316;2023-02-19T03:48:28;94864.19;;;7.71;65.49
9774;BME280;4926;42.670;23.316;2023-02-19T03:51:18;94868.94;;;7.64;65.46
9774;BME280;4926;42.670;23.316;2023-02-19T03:53:52;94876.34;;;7.62;65.86
9774;BME280;4926;42.670;23.316;2023-02-19T03:56:26;94867.31;;;7.53;66.02
9774;BME280;4926;42.670;23.316;2023-02-19T03:58:59;94880.75;;;7.42;66.03
9774;BME280;4926;42.670;23.316;2023-02-19T04:01:32;94886.69;;;7.07;67.23
9774;BME280;4926;42.670;23.316;2023-02-19T04:04:06;94887.63;;;6.86;67.98
9774;BME280;4926;42.670;23.316;2023-02-19T04:06:36;94886.09;;;6.95;67.92
9774;BME280;4926;42.670;23.316;2023-02-19T04:09:07;94880.34;;;7.08;67.55
9774;BME280;4926;42.670;23.316;2023-02-19T04:11:37;94880.75;;;6.85;68.23
9774;BME280;4926;42.670;23.316;2023-02-19T04:14:08;94887.84;;;6.79;68.90
9774;BME280;4926;42.670;23.316;2023-02-19T04:16:40;94897.16;;;6.87;68.60
9774;BME280;4926;42.670;23.316;2023-02-19T04:19:11;94892.91;;;6.86;68.88
9774;BME280;4926;42.670;23.316;2023-02-19T04:21:40;94897.66;;;6.84;69.19
9774;BME280;4926;42.670;23.316;2023-02-19T04:24:11;94896.56;;;6.75;69.60
9774;BME280;4926;42.670;23.316;2023-02-19T04:26:42;94898.19;;;6.81;68.99
9774;BME280;4926;42.670;23.316;2023-02-19T04:29:12;94906.44;;;6.53;69.99
9774;BME280;4926;42.670;23.316;2023-02-19T04:31:39;94910.28;;;6.40;70.72
9774;BME280;4926;42.670;23.316;2023-02-19T04:34:05;94920.28;;;6.33;71.36
9774;BME280;4926;42.670;23.316;2023-02-19T04:36:34;94925.91;;;6.10;72.09
9774;BME280;4926;42.670;23.316;2023-02-19T04:39:06;94915.28;;;6.05;72.67
9774;BME280;4926;42.670;23.316;2023-02-19T04:41:33;94908.28;;;6.21;72.31
9774;BME280;4926;42.670;23.316;2023-02-19T04:44:02;94917.00;;;6.21;72.33
9774;BME280;4926;42.670;23.316;2023-02-19T04:46:29;94899.19;;;6.07;72.08
9774;BME280;4926;42.670;23.316;2023-02-19T04:48:55;94915.50;;;6.30;72.53
9774;BME280;4926;42.670;23.316;2023-02-19T04:51:22;94924.59;;;6.44;71.68
9774;BME280;4926;42.670;23.316;2023-02-19T04:53:50;94926.44;;;6.44;71.42
9774;BME280;4926;42.670;23.316;2023-02-19T04:56:17;94926.72;;;6.42;71.41
9774;BME280;4926;42.670;23.316;2023-02-19T04:58:44;94917.50;;;6.45;71.19
9774;BME280;4926;42.670;23.316;2023-02-19T05:01:11;94918.69;;;6.64;70.93
9774;BME280;4926;42.670;23.316;2023-02-19T05:03:39;94913.94;;;6.66;70.96
9774;BME280;4926;42.670;23.316;2023-02-19T05:06:08;94921.25;;;6.86;70.06
9774;BME280;4926;42.670;23.316;2023-02-19T05:08:38;94916.25;;;6.89;69.58
9774;BME280;4926;42.670;23.316;2023-02-19T05:11:12;94915.47;;;6.94;69.17
9774;BME280;4926;42.670;23.316;2023-02-19T05:13:39;94918.94;;;6.99;68.36
9774;BME280;4926;42.670;23.316;2023-02-19T05:16:09;94909.38;;;6.93;68.57
9774;BME280;4926;42.670;23.316;2023-02-19T05:18:38;94922.50;;;6.78;69.34
9774;BME280;4926;42.670;23.316;2023-02-19T05:21:05;94922.03;;;6.54;70.29
9774;BME280;4926;42.670;23.316;2023-02-19T05:23:34;94940.03;;;6.52;70.36
9774;BME280;4926;42.670;23.316;2023-02-19T05:26:04;94931.97;;;6.69;70.14
9774;BME280;4926;42.670;23.316;2023-02-19T05:28:35;94930.88;;;6.70;70.30
9774;BME280;4926;42.670;23.316;2023-02-19T05:31:04;94929.69;;;6.88;69.90
9774;BME280;4926;42.670;23.316;2023-02-19T05:33:34;94932.63;;;6.91;69.89
9774;BME280;4926;42.670;23.316;2023-02-19T05:36:05;94928.66;;;6.89;69.38
9774;BME280;4926;42.670;23.316;2023-02-19T05:38:32;94934.31;;;7.02;69.11
9774;BME280;4926;42.670;23.316;2023-02-19T05:41:07;94938.88;;;7.12;68.87
9774;BME280;4926;42.670;23.316;2023-02-19T05:43:35;94942.41;;;7.27;68.29
9774;BME280;4926;42.670;23.316;2023-02-19T05:46:02;94933.91;;;7.20;68.47
9774;BME280;4926;42.670;23.316;2023-02-19T05:48:29;94939.31;;;7.45;68.16
9774;BME280;4926;42.670;23.316;2023-02-19T05:51:01;94935.13;;;7.59;67.64
9774;BME280;4926;42.670;23.316;2023-02-19T05:53:28;94939.44;;;7.75;67.31
9774;BME280;4926;42.670;23.316;2023-02-19T05:55:55;94936.88;;;7.96;66.37
9774;BME280;4926;42.670;23.316;2023-02-19T05:58:21;94943.56;;;8.18;65.89
9774;BME280;4926;42.670;23.316;2023-02-19T06:00:50;94947.63;;;8.41;65.25
9774;BME280;4926;42.670;23.316;2023-02-19T06:03:17;94954.28;;;8.63;64.07
9774;BME280;4926;42.670;23.316;2023-02-19T06:05:46;94958.25;;;8.91;63.68
9774;BME280;4926;42.670;23.316;2023-02-19T06:08:16;94959.56;;;9.09;62.32
9774;BME280;4926;42.670;23.316;2023-02-19T06:10:44;94959.81;;;9.22;61.76
9774;BME280;4926;42.670;23.316;2023-02-19T06:13:13;94953.97;;;9.35;61.19
9774;BME280;4926;42.670;23.316;2023-02-19T06:15:42;94963.50;;;9.51;60.80
9774;BME280;4926;42.670;23.316;2023-02-19T06:18:10;94956.06;;;9.53;60.23
9774;BME280;4926;42.670;23.316;2023-02-19T06:20:39;94955.78;;;9.50;60.26
9774;BME280;4926;42.670;23.316;2023-02-19T06:23:06;94960.25;;;9.59;59.98
9774;BME280;4926;42.670;23.316;2023-02-19T06:25:33;94963.97;;;9.63;59.98
9774;BME280;4926;42.670;23.316;2023-02-19T06:27:59;94964.50;;;9.65;59.84
9774;BME280;4926;42.670;23.316;2023-02-19T06:30:26;94957.34;;;9.61;60.01
9774;BME280;4926;42.670;23.316;2023-02-19T06:32:53;94971.66;;;9.75;59.54
9774;BME280;4926;42.670;23.316;2023-02-19T06:35:21;94963.41;;;9.76;59.82
9774;BME280;4926;42.670;23.316;2023-02-19T06:37:48;94969.50;;;9.82;59.78
9774;BME280;4926;42.670;23.316;2023-02-19T06:40:15;94962.81;;;9.94;59.89
9774;BME280;4926;42.670;23.316;2023-02-19T06:42:42;94958.22;;;10.15;59.19
9774;BME280;4926;42.670;23.316;2023-02-19T06:45:09;94955.19;;;10.37;59.08
9774;BME280;4926;42.670;23.316;2023-02-19T06:47:36;94953.03;;;10.39;58.35
9774;BME280;4926;42.670;23.316;2023-02-19T06:50:05;94958.78;;;10.56;58.25
9774;BME280;4926;42.670;23.316;2023-02-19T06:52:33;94955.94;;;10.81;57.41
9774;BME280;4926;42.670;23.316;2023-02-19T06:55:00;94915.00;;;10.72;56.69
9774;BME280;4926;42.670;23.316;2023-02-19T06:57:27;94951.91;;;11.17;56.15
9774;BME280;4926;42.670;23.316;2023-02-19T06:59:53;94953.38;;;11.33;55.81
9774;BME280;4926;42.670;23.316;2023-02-19T07:02:20;94951.84;;;11.51;54.95
9774;BME280;4926;42.670;23.316;2023-02-19T07:04:47;94958.38;;;11.68;54.83
9774;BME280;4926;42.670;23.316;2023-02-19T07:07:13;94955.34;;;11.75;54.18
9774;BME280;4926;42.670;23.316;2023-02-19T07:09:41;94951.72;;;11.89;53.73
9774;BME280;4926;42.670;23.316;2023-02-19T07:12:08;94947.38;;;12.17;53.09
9774;BME280;4926;42.670;23.316;2023-02-19T07:14:35;94941.00;;;12.37;51.93
9774;BME280;4926;42.670;23.316;2023-02-19T07:17:03;94942.94;;;12.31;51.80
9774;BME280;4926;42.670;23.316;2023-02-19T07:19:30;94936.34;;;12.23;52.04
9774;BME280;4926;42.670;23.316;2023-02-19T07:21:59;94938.16;;;12.28;51.85
9774;BME280;4926;42.670;23.316;2023-02-19T07:24:26;94923.94;;;12.70;50.66
9774;BME280;4926;42.670;23.316;2023-02-19T07:26:56;94918.13;;;12.81;50.46
9774;BME280;4926;42.670;23.316;2023-02-19T07:29:24;94916.53;;;13.31;49.86
9774;BME280;4926;42.670;23.316;2023-02-19T07:31:51;94908.75;;;13.75;48.52
9774;BME280;4926;42.670;23.316;2023-02-19T07:34:18;94906.13;;;14.24;47.98
9774;BME280;4926;42.670;23.316;2023-02-19T07:36:45;94892.91;;;14.41;46.85
9774;BME280;4926;42.670;23.316;2023-02-19T07:39:12;94892.59;;;14.57;46.65
9774;BME280;4926;42.670;23.316;2023-02-19T07:41:45;94877.00;;;14.81;46.22
9774;BME280;4926;42.670;23.316;2023-02-19T07:44:15;94871.50;;;15.08;45.53
9774;BME280;4926;42.670;23.316;2023-02-19T07:46:43;94872.84;;;15.49;44.73
9774;BME280;4926;42.670;23.316;2023-02-19T07:49:10;94867.22;;;15.59;44.63
9774;BME280;4926;42.670;23.316;2023-02-19T07:51:36;94857.53;;;15.50;44.47
9774;BME280;4926;42.670;23.316;2023-02-19T07:54:04;94860.50;;;15.79;44.43
9774;BME280;4926;42.670;23.316;2023-02-19T07:56:32;94856.00;;;16.39;43.59
9774;BME280;4926;42.670;23.316;2023-02-19T07:58:59;94846.88;;;16.66;42.68
9774;BME280;4926;42.670;23.316;2023-02-19T08:01:32;94845.78;;;16.58;42.79
9774;BME280;4926;42.670;23.316;2023-02-19T08:04:16;94843.56;;;16.78;42.52
9774;BME280;4926;42.670;23.316;2023-02-19T08:06:43;94837.22;;;16.91;42.21
9774;BME280;4926;42.670;23.316;2023-02-19T08:09:10;94828.94;;;17.21;42.01
9774;BME280;4926;42.670;23.316;2023-02-19T08:11:38;94830.88;;;16.87;41.86
9774;BME280;4926;42.670;23.316;2023-02-19T08:14:23;94838.19;;;16.52;42.65
9774;BME280;4926;42.670;23.316;2023-02-19T08:16:52;94832.97;;;16.47;43.15
9774;BME280;4926;42.670;23.316;2023-02-19T08:19:21;94826.75;;;16.98;42.37
9774;BME280;4926;42.670;23.316;2023-02-19T08:21:50;94828.38;;;16.73;42.58
9774;BME280;4926;42.670;23.316;2023-02-19T08:24:17;94822.75;;;17.21;41.60
9774;BME280;4926;42.670;23.316;2023-02-19T08:26:44;94818.56;;;17.78;40.84
9774;BME280;4926;42.670;23.316;2023-02-19T08:29:11;94811.97;;;17.67;40.74
9774;BME280;4926;42.670;23.316;2023-02-19T08:31:38;94812.94;;;17.92;40.76
9774;BME280;4926;42.670;23.316;2023-02-19T08:34:09;94795.91;;;18.08;40.12
9774;BME280;4926;42.670;23.316;2023-02-19T08:36:36;94812.03;;;18.78;39.24
9774;BME280;4926;42.670;23.316;2023-02-19T08:39:03;94802.50;;;18.60;38.74
9774;BME280;4926;42.670;23.316;2023-02-19T08:41:30;94798.75;;;18.53;38.81
9774;BME280;4926;42.670;23.316;2023-02-19T08:43:56;94806.56;;;18.46;38.98
9774;BME280;4926;42.670;23.316;2023-02-19T08:46:24;94797.56;;;18.95;38.46
9774;BME280;4926;42.670;23.316;2023-02-19T08:48:51;94777.56;;;19.41;37.95
9774;BME280;4926;42.670;23.316;2023-02-19T08:51:19;94771.91;;;20.06;36.94
9774;BME280;4926;42.670;23.316;2023-02-19T08:53:46;94748.72;;;19.93;36.60
9774;BME280;4926;42.670;23.316;2023-02-19T08:56:15;94757.59;;;20.06;36.65
9774;BME280;4926;42.670;23.316;2023-02-19T08:58:43;94759.81;;;20.16;36.58
9774;BME280;4926;42.670;23.316;2023-02-19T09:01:11;94758.41;;;20.18;36.79
9774;BME280;4926;42.670;23.316;2023-02-19T09:03:38;94747.00;;;20.25;36.75
9774;BME280;4926;42.670;23.316;2023-02-19T09:06:05;94746.44;;;20.19;36.83
9774;BME280;4926;42.670;23.316;2023-02-19T09:08:35;94749.88;;;19.68;37.45
9774;BME280;4926;42.670;23.316;2023-02-19T09:11:03;94739.50;;;19.94;37.23
9774;BME280;4926;42.670;23.316;2023-02-19T09:13:31;94735.66;;;20.74;36.16
9774;BME280;4926;42.670;23.316;2023-02-19T09:15:58;94718.78;;;21.40;35.35
9774;BME280;4926;42.670;23.316;2023-02-19T09:18:24;94719.19;;;21.73;34.92
9774;BME280;4926;42.670;23.316;2023-02-19T09:20:54;94692.06;;;21.73;34.66
9774;BME280;4926;42.670;23.316;2023-02-19T09:23:24;94700.91;;;21.85;34.44
9774;BME280;4926;42.670;23.316;2023-02-19T09:25:58;94704.28;;;21.98;34.48
9774;BME280;4926;42.670;23.316;2023-02-19T09:28:25;94691.41;;;22.10;34.75
9774;BME280;4926;42.670;23.316;2023-02-19T09:30:59;94684.34;;;22.44;34.24
9774;BME280;4926;42.670;23.316;2023-02-19T09:33:28;94684.91;;;22.15;34.11
9774;BME280;4926;42.670;23.316;2023-02-19T09:35:57;94694.34;;;22.21;34.23
9774;BME280;4926;42.670;23.316;2023-02-19T09:38:24;94692.50;;;22.25;34.59
9774;BME280;4926;42.670;23.316;2023-02-19T09:40:51;94682.22;;;22.53;34.17
9774;BME280;4926;42.670;23.316;2023-02-19T09:43:21;94682.47;;;22.29;34.14
9774;BME280;4926;42.670;23.316;2023-02-19T09:45:56;94686.19;;;22.40;33.82
9774;BME280;4926;42.670;23.316;2023-02-19T09:48:26;94681.25;;;22.84;33.46
9774;BME280;4926;42.670;23.316;2023-02-19T09:50:55;94663.97;;;23.18;33.21
9774;BME280;4926;42.670;23.316;2023-02-19T09:53:25;94673.03;;;23.03;33.00
9774;BME280;4926;42.670;23.316;2023-02-19T09:55:55;94668.47;;;22.27;33.59
9774;BME280;4926;42.670;23.316;2023-02-19T09:58:26;94657.91;;;22.03;33.84
9774;BME280;4926;42.670;23.316;2023-02-19T10:01:00;94648.50;;;21.78;34.36
9774;BME280;4926;42.670;23.316;2023-02-19T10:03:30;94631.16;;;21.82;34.08
9774;BME280;4926;42.670;23.316;2023-02-19T10:06:00;94626.59;;;21.52;34.24
9774;BME280;4926;42.670;23.316;2023-02-19T10:08:33;94633.38;;;21.11;34.50
9774;BME280;4926;42.670;23.316;2023-02-19T10:11:04;94624.91;;;21.13;34.80
9774;BME280;4926;42.670;23.316;2023-02-19T10:13:42;94624.16;;;20.53;34.86
9774;BME280;4926;42.670;23.316;2023-02-19T10:16:12;94625.06;;;20.02;35.86
9774;BME280;4926;42.670;23.316;2023-02-19T10:18:43;94624.38;;;20.05;36.10
9774;BME280;4926;42.670;23.316;2023-02-19T10:21:14;94611.81;;;20.83;35.08
9774;BME280;4926;42.670;23.316;2023-02-19T10:23:41;94590.69;;;21.04;34.40
9774;BME280;4926;42.670;23.316;2023-02-19T10:26:11;94588.66;;;20.12;35.34
9774;BME280;4926;42.670;23.316;2023-02-19T10:28:44;94600.16;;;20.36;35.37
9774;BME280;4926;42.670;23.316;2023-02-19T10:31:16;94595.50;;;20.21;35.67
9774;BME280;4926;42.670;23.316;2023-02-19T10:33:48;94589.47;;;20.55;35.15
9774;BME280;4926;42.670;23.316;2023-02-19T10:36:23;94588.41;;;20.75;34.84
9774;BME280;4926;42.670;23.316;2023-02-19T10:38:54;94578.63;;;20.40;35.09
9774;BME280;4926;42.670;23.316;2023-02-19T10:41:23;94569.63;;;20.51;35.04
9774;BME280;4926;42.670;23.316;2023-02-19T10:44:03;94565.00;;;20.09;35.61
9774;BME280;4926;42.670;23.316;2023-02-19T10:46:33;94559.97;;;20.50;35.28
9774;BME280;4926;42.670;23.316;2023-02-19T10:49:05;94553.06;;;20.68;34.97
9774;BME280;4926;42.670;23.316;2023-02-19T10:51:40;94545.66;;;20.65;35.07
9774;BME280;4926;42.670;23.316;2023-02-19T10:54:15;94539.97;;;20.55;34.76
9774;BME280;4926;42.670;23.316;2023-02-19T10:56:43;94542.03;;;19.59;36.16
9774;BME280;4926;42.670;23.316;2023-02-19T10:59:21;94549.25;;;18.79;37.56
9774;BME280;4926;42.670;23.316;2023-02-19T11:01:58;94551.34;;;18.38;38.10
9774;BME280;4926;42.670;23.316;2023-02-19T11:04:26;94551.66;;;18.24;38.32
9774;BME280;4926;42.670;23.316;2023-02-19T11:06:54;94550.44;;;17.89;38.83
9774;BME280;4926;42.670;23.316;2023-02-19T11:09:25;94549.78;;;17.59;39.38
9774;BME280;4926;42.670;23.316;2023-02-19T11:11:54;94546.03;;;17.52;39.66
9774;BME280;4926;42.670;23.316;2023-02-19T11:14:26;94540.19;;;17.50;39.79
9774;BME280;4926;42.670;23.316;2023-02-19T11:16:58;94536.97;;;17.36;39.97
9774;BME280;4926;42.670;23.316;2023-02-19T11:19:28;94540.50;;;17.28;39.82
9774;BME280;4926;42.670;23.316;2023-02-19T11:21:57;94517.66;;;17.34;39.66
9774;BME280;4926;42.670;23.316;2023-02-19T11:24:29;94521.06;;;17.43;39.50
9774;BME280;4926;42.670;23.316;2023-02-19T11:26:58;94521.72;;;17.40;39.44
9774;BME280;4926;42.670;23.316;2023-02-19T11:29:27;94514.53;;;17.52;39.60
9774;BME280;4926;42.670;23.316;2023-02-19T11:32:16;94507.47;;;17.60;39.32
9774;BME280;4926;42.670;23.316;2023-02-19T11:34:51;94499.41;;;17.60;39.24
9774;BME280;4926;42.670;23.316;2023-02-19T11:37:30;94490.78;;;17.54;38.55
9774;BME280;4926;42.670;23.316;2023-02-19T11:39:59;94483.47;;;17.55;38.71
9774;BME280;4926;42.670;23.316;2023-02-19T11:42:39;94486.81;;;17.52;38.91
9774;BME280;4926;42.670;23.316;2023-02-19T11:45:28;94488.50;;;17.56;39.00
9774;BME280;4926;42.670;23.316;2023-02-19T11:51:19;94488.44;;;17.65;38.30
9774;BME280;4926;42.670;23.316;2023-02-19T11:54:02;94460.28;;;17.62;37.82
9774;BME280;4926;42.670;23.316;2023-02-19T11:56:33;94457.25;;;17.64;37.79
9774;BME280;4926;42.670;23.316;2023-02-19T11:59:03;94466.16;;;17.76;37.68
9774;BME280;4926;42.670;23.316;2023-02-19T12:02:03;94456.19;;;18.01;37.44
9774;BME280;4926;42.670;23.316;2023-02-19T12:04:53;94440.47;;;18.87;36.30
9774;BME280;4926;42.670;23.316;2023-02-19T12:07:42;94432.22;;;19.36;34.87
9774;BME280;4926;42.670;23.316;2023-02-19T12:10:19;94420.19;;;19.76;34.64
9774;BME280;4926;42.670;23.316;2023-02-19T12:12:56;94411.56;;;19.71;34.58
9774;BME280;4926;42.670;23.316;2023-02-19T12:15:52;94419.81;;;19.07;35.42
9774;BME280;4926;42.670;23.316;2023-02-19T12:21:31;94406.25;;;18.40;36.00
9774;BME280;4926;42.670;23.316;2023-02-19T12:24:32;94425.66;;;18.09;37.76
9774;BME280;4926;42.670;23.316;2023-02-19T12:27:14;94402.09;;;18.18;36.70
9774;BME280;4926;42.670;23.316;2023-02-19T12:30:02;94393.00;;;18.23;36.81
9774;BME280;4926;42.670;23.316;2023-02-19T12:35:41;94402.09;;;17.82;38.45
9774;BME280;4926;42.670;23.316;2023-02-19T12:38:19;94385.03;;;17.90;38.43
9774;BME280;4926;42.670;23.316;2023-02-19T12:41:01;94388.75;;;18.10;38.55
9774;BME280;4926;42.670;23.316;2023-02-19T12:43:36;94381.34;;;17.95;38.20
9774;BME280;4926;42.670;23.316;2023-02-19T12:46:08;94384.38;;;17.93;38.39
9774;BME280;4926;42.670;23.316;2023-02-19T12:48:42;94376.41;;;17.97;38.40
9774;BME280;4926;42.670;23.316;2023-02-19T12:51:17;94383.91;;;18.03;38.57
9774;BME280;4926;42.670;23.316;2023-02-19T12:53:52;94359.91;;;17.98;38.66
9774;BME280;4926;42.670;23.316;2023-02-19T12:56:24;94365.94;;;17.95;38.56
9774;BME280;4926;42.670;23.316;2023-02-19T12:58:55;94355.63;;;17.85;38.70
9774;BME280;4926;42.670;23.316;2023-02-19T13:01:26;94355.63;;;17.85;38.70
9774;BME280;4926;42.670;23.316;2023-02-19T13:04:12;94354.72;;;17.81;38.58
9774;BME280;4926;42.670;23.316;2023-02-19T13:06:47;94343.94;;;17.81;38.44
9774;BME280;4926;42.670;23.316;2023-02-19T13:09:19;94343.53;;;17.91;38.17
9774;BME280;4926;42.670;23.316;2023-02-19T13:11:49;94338.81;;;18.00;37.96
9774;BME280;4926;42.670;23.316;2023-02-19T13:14:23;94341.28;;;18.05;37.71
9774;BME280;4926;42.670;23.316;2023-02-19T13:16:56;94326.44;;;17.99;37.50
9774;BME280;4926;42.670;23.316;2023-02-19T13:19:24;94322.19;;;17.98;37.71
9774;BME280;4926;42.670;23.316;2023-02-19T13:22:02;94323.97;;;18.06;37.78
9774;BME280;4926;42.670;23.316;2023-02-19T13:24:48;94315.91;;;17.94;37.88
9774;BME280;4926;42.670;23.316;2023-02-19T13:27:30;94317.34;;;18.04;37.95
9774;BME280;4926;42.670;23.316;2023-02-19T13:30:09;94321.03;;;18.11;38.11
9774;BME280;4926;42.670;23.316;2023-02-19T13:32:53;94302.13;;;18.35;36.98
9774;BME280;4926;42.670;23.316;2023-02-19T13:35:26;94298.13;;;18.41;36.55
9774;BME280;4926;42.670;23.316;2023-02-19T13:38:02;94300.56;;;18.46;37.19
9774;BME280;4926;42.670;23.316;2023-02-19T13:40:33;94290.34;;;18.40;37.14
9774;BME280;4926;42.670;23.316;2023-02-19T13:43:02;94291.16;;;18.40;37.33
9774;BME280;4926;42.670;23.316;2023-02-19T13:45:34;94287.78;;;18.31;37.49
9774;BME280;4926;42.670;23.316;2023-02-19T13:48:14;94282.41;;;18.31;37.52
9774;BME280;4926;42.670;23.316;2023-02-19T13:50:41;94287.78;;;18.31;37.58
9774;BME280;4926;42.670;23.316;2023-02-19T13:53:57;94280.50;;;18.20;37.68